sensor_id;sensor_type;location;lat;lon;timestamp;P1;durP1;ratioP1;P2;durP2;ratioP2
64550;SDS011;50945;44.472;-123.352;2023-03-25T00:01:05;4.38;;;0.80;;
64550;SDS011;50945;44.472;-123.352;2023-03-25T00:03:38;4.80;;;1.10;;
64550;SDS011;50945;44.472;-123.352;2023-03-25T00:06:17;2.55;;;0.70;;
64550;SDS011;50945;44.472;-123.352;2023-03-25T00:08:44;2.42;;;0.73;;
64550;SDS011;50945;44.472;-123.352;2023-03-25T00:11:10;3.30;;;0.65;;
64550;SDS011;50945;44.472;-123.352;2023-03-25T00:13:38;1.98;;;0.60;;
64550;SDS011;50945;44.472;-123.352;2023-03-25T00:16:05;1.63;;;0.60;;
64550;SDS011;50945;44.472;-123.352;2023-03-25T00:18:31;0.40;;;0.30;;
64550;SDS011;50945;44.472;-123.352;2023-03-25T00:20:58;0.35;;;0.30;;
64550;SDS011;50945;44.472;-123.352;2023-03-25T00:23:27;1.38;;;0.30;;
64550;SDS011;50945;44.472;-123.352;2023-03-25T00:25:54;3.42;;;0.80;;
64550;SDS011;50945;44.472;-123.352;2023-03-25T00:28:25;2.90;;;0.70;;
64550;SDS011;50945;44.472;-123.352;2023-03-25T00:30:59;2.38;;;0.93;;
64550;SDS011;50945;44.472;-123.352;2023-03-25T00:33:33;1.40;;;0.70;;
64550;SDS011;50945;44.472;-123.352;2023-03-25T00:36:00;5.80;;;0.88;;
64550;SDS011;50945;44.472;-123.352;2023-03-25T00:38:29;4.15;;;1.08;;
64550;SDS011;50945;44.472;-123.352;2023-03-25T00:43:53;1.65;;;0.75;;
64550;SDS011;50945;44.472;-123.352;2023-03-25T00:46:22;3.65;;;0.80;;
64550;SDS011;50945;44.472;-123.352;2023-03-25T00:48:51;3.47;;;0.82;;
64550;SDS011;50945;44.472;-123.352;2023-03-25T00:51:18;6.35;;;1.13;;
64550;SDS011;50945;44.472;-123.352;2023-03-25T00:53:55;6.90;;;1.80;;
64550;SDS011;50945;44.472;-123.352;2023-03-25T00:56:24;3.75;;;1.42;;
64550;SDS011;50945;44.472;-123.352;2023-03-25T01:01:18;4.60;;;0.82;;
64550;SDS011;50945;44.472;-123.352;2023-03-25T01:03:52;2.72;;;0.95;;
64550;SDS011;50945;44.472;-123.352;2023-03-25T01:06:22;8.15;;;2.03;;
64550;SDS011;50945;44.472;-123.352;2023-03-25T01:08:57;1.55;;;0.70;;
64550;SDS011;50945;44.472;-123.352;2023-03-25T01:11:29;4.90;;;1.23;;
64550;SDS011;50945;44.472;-123.352;2023-03-25T01:13:59;4.43;;;1.05;;
64550;SDS011;50945;44.472;-123.352;2023-03-25T01:16:26;8.48;;;1.65;;
64550;SDS011;50945;44.472;-123.352;2023-03-25T01:18:53;4.38;;;1.30;;
64550;SDS011;50945;44.472;-123.352;2023-03-25T01:21:20;4.78;;;0.90;;
64550;SDS011;50945;44.472;-123.352;2023-03-25T01:23:47;5.38;;;1.00;;
64550;SDS011;50945;44.472;-123.352;2023-03-25T01:26:13;4.53;;;0.88;;
64550;SDS011;50945;44.472;-123.352;2023-03-25T01:28:40;3.60;;;0.60;;
64550;SDS011;50945;44.472;-123.352;2023-03-25T01:31:08;2.17;;;0.40;;
64550;SDS011;50945;44.472;-123.352;2023-03-25T01:33:37;3.28;;;0.70;;
64550;SDS011;50945;44.472;-123.352;2023-03-25T01:36:03;0.75;;;0.68;;
64550;SDS011;50945;44.472;-123.352;2023-03-25T01:38:36;4.60;;;0.70;;
64550;SDS011;50945;44.472;-123.352;2023-03-25T01:41:03;1.48;;;0.47;;
64550;SDS011;50945;44.472;-123.352;2023-03-25T01:48:24;1.25;;;0.60;;
64550;SDS011;50945;44.472;-123.352;2023-03-25T01:51:17;4.70;;;0.80;;
64550;SDS011;50945;44.472;-123.352;2023-03-25T01:53:49;1.63;;;0.52;;
64550;SDS011;50945;44.472;-123.352;2023-03-25T01:56:19;1.85;;;0.80;;
64550;SDS011;50945;44.472;-123.352;2023-03-25T01:58:58;2.03;;;0.68;;
64550;SDS011;50945;44.472;-123.352;2023-03-25T02:01:27;5.20;;;1.50;;
64550;SDS011;50945;44.472;-123.352;2023-03-25T02:03:55;2.15;;;0.82;;
64550;SDS011;50945;44.472;-123.352;2023-03-25T02:06:39;3.30;;;1.00;;
64550;SDS011;50945;44.472;-123.352;2023-03-25T02:09:10;4.05;;;0.95;;
64550;SDS011;50945;44.472;-123.352;2023-03-25T02:11:38;3.80;;;0.88;;
64550;SDS011;50945;44.472;-123.352;2023-03-25T02:14:12;7.63;;;1.05;;
64550;SDS011;50945;44.472;-123.352;2023-03-25T02:16:44;1.90;;;0.60;;
64550;SDS011;50945;44.472;-123.352;2023-03-25T02:25:22;2.72;;;0.90;;
64550;SDS011;50945;44.472;-123.352;2023-03-25T02:47:37;10.43;;;1.25;;
64550;SDS011;50945;44.472;-123.352;2023-03-25T02:50:22;5.50;;;1.00;;
64550;SDS011;50945;44.472;-123.352;2023-03-25T02:52:55;4.60;;;1.42;;
64550;SDS011;50945;44.472;-123.352;2023-03-25T02:55:28;6.35;;;0.77;;
64550;SDS011;50945;44.472;-123.352;2023-03-25T02:57:56;2.05;;;0.70;;
64550;SDS011;50945;44.472;-123.352;2023-03-25T03:00:29;4.32;;;0.98;;
64550;SDS011;50945;44.472;-123.352;2023-03-25T03:02:57;5.78;;;0.95;;
64550;SDS011;50945;44.472;-123.352;2023-03-25T03:05:32;5.57;;;1.10;;
64550;SDS011;50945;44.472;-123.352;2023-03-25T03:08:07;5.15;;;0.90;;
64550;SDS011;50945;44.472;-123.352;2023-03-25T03:11:01;4.35;;;0.85;;
64550;SDS011;50945;44.472;-123.352;2023-03-25T03:16:27;7.20;;;1.10;;
64550;SDS011;50945;44.472;-123.352;2023-03-25T03:19:31;4.40;;;0.80;;
64550;SDS011;50945;44.472;-123.352;2023-03-25T03:27:59;3.20;;;0.77;;
64550;SDS011;50945;44.472;-123.352;2023-03-25T03:33:45;3.17;;;0.85;;
64550;SDS011;50945;44.472;-123.352;2023-03-25T03:36:16;4.35;;;1.70;;
64550;SDS011;50945;44.472;-123.352;2023-03-25T03:38:50;2.35;;;0.70;;
64550;SDS011;50945;44.472;-123.352;2023-03-25T03:41:22;3.58;;;0.90;;
64550;SDS011;50945;44.472;-123.352;2023-03-25T03:46:31;3.67;;;0.93;;
64550;SDS011;50945;44.472;-123.352;2023-03-25T03:49:02;2.15;;;0.70;;
64550;SDS011;50945;44.472;-123.352;2023-03-25T03:51:34;2.83;;;0.57;;
64550;SDS011;50945;44.472;-123.352;2023-03-25T03:56:58;2.17;;;0.77;;
64550;SDS011;50945;44.472;-123.352;2023-03-25T04:02:27;1.95;;;0.95;;
64550;SDS011;50945;44.472;-123.352;2023-03-25T04:05:03;1.80;;;0.50;;
64550;SDS011;50945;44.472;-123.352;2023-03-25T04:07:38;1.30;;;0.50;;
64550;SDS011;50945;44.472;-123.352;2023-03-25T04:10:15;4.65;;;1.13;;
64550;SDS011;50945;44.472;-123.352;2023-03-25T04:13:04;6.70;;;1.08;;
64550;SDS011;50945;44.472;-123.352;2023-03-25T04:15:39;7.85;;;1.25;;
64550;SDS011;50945;44.472;-123.352;2023-03-25T04:18:06;4.25;;;1.40;;
64550;SDS011;50945;44.472;-123.352;2023-03-25T04:20:33;2.28;;;1.30;;
64550;SDS011;50945;44.472;-123.352;2023-03-25T04:23:01;5.22;;;1.35;;
64550;SDS011;50945;44.472;-123.352;2023-03-25T04:25:33;6.18;;;1.42;;
64550;SDS011;50945;44.472;-123.352;2023-03-25T04:28:00;4.55;;;1.10;;
64550;SDS011;50945;44.472;-123.352;2023-03-25T04:30:26;4.25;;;1.58;;
64550;SDS011;50945;44.472;-123.352;2023-03-25T04:32:53;2.15;;;0.88;;
64550;SDS011;50945;44.472;-123.352;2023-03-25T04:35:20;3.85;;;1.10;;
64550;SDS011;50945;44.472;-123.352;2023-03-25T04:37:46;5.95;;;1.27;;
64550;SDS011;50945;44.472;-123.352;2023-03-25T04:40:18;4.25;;;1.20;;
64550;SDS011;50945;44.472;-123.352;2023-03-25T04:42:45;5.10;;;1.13;;
64550;SDS011;50945;44.472;-123.352;2023-03-25T04:45:13;9.85;;;1.73;;
64550;SDS011;50945;44.472;-123.352;2023-03-25T04:47:45;3.83;;;1.30;;
64550;SDS011;50945;44.472;-123.352;2023-03-25T04:50:18;1.88;;;1.15;;
64550;SDS011;50945;44.472;-123.352;2023-03-25T04:57:46;2.72;;;1.25;;
64550;SDS011;50945;44.472;-123.352;2023-03-25T05:00:14;4.18;;;1.27;;
64550;SDS011;50945;44.472;-123.352;2023-03-25T05:02:49;3.80;;;0.93;;
64550;SDS011;50945;44.472;-123.352;2023-03-25T05:05:24;3.80;;;0.98;;
64550;SDS011;50945;44.472;-123.352;2023-03-25T05:07:51;4.50;;;0.80;;
64550;SDS011;50945;44.472;-123.352;2023-03-25T05:10:20;2.92;;;0.70;;
64550;SDS011;50945;44.472;-123.352;2023-03-25T05:12:48;4.78;;;1.15;;
64550;SDS011;50945;44.472;-123.352;2023-03-25T05:15:15;2.55;;;1.27;;
64550;SDS011;50945;44.472;-123.352;2023-03-25T05:17:42;3.95;;;0.88;;
64550;SDS011;50945;44.472;-123.352;2023-03-25T05:20:09;5.22;;;1.27;;
64550;SDS011;50945;44.472;-123.352;2023-03-25T05:22:38;0.90;;;0.70;;
64550;SDS011;50945;44.472;-123.352;2023-03-25T05:25:06;3.10;;;0.90;;
64550;SDS011;50945;44.472;-123.352;2023-03-25T05:27:34;3.58;;;1.13;;
64550;SDS011;50945;44.472;-123.352;2023-03-25T05:30:01;7.30;;;1.45;;
64550;SDS011;50945;44.472;-123.352;2023-03-25T05:32:28;3.53;;;1.50;;
64550;SDS011;50945;44.472;-123.352;2023-03-25T05:34:58;6.25;;;1.08;;
64550;SDS011;50945;44.472;-123.352;2023-03-25T05:37:24;5.85;;;1.40;;
64550;SDS011;50945;44.472;-123.352;2023-03-25T05:39:51;5.25;;;1.17;;
64550;SDS011;50945;44.472;-123.352;2023-03-25T05:42:17;1.77;;;0.80;;
64550;SDS011;50945;44.472;-123.352;2023-03-25T05:44:51;3.45;;;1.23;;
64550;SDS011;50945;44.472;-123.352;2023-03-25T05:47:22;3.22;;;1.58;;
64550;SDS011;50945;44.472;-123.352;2023-03-25T05:49:50;4.72;;;1.10;;
64550;SDS011;50945;44.472;-123.352;2023-03-25T05:52:18;5.05;;;1.90;;
64550;SDS011;50945;44.472;-123.352;2023-03-25T05:54:48;1.85;;;1.52;;
64550;SDS011;50945;44.472;-123.352;2023-03-25T05:57:16;6.90;;;1.48;;
64550;SDS011;50945;44.472;-123.352;2023-03-25T05:59:42;7.57;;;1.23;;
64550;SDS011;50945;44.472;-123.352;2023-03-25T06:02:13;1.13;;;0.90;;
64550;SDS011;50945;44.472;-123.352;2023-03-25T06:04:40;5.18;;;1.33;;
64550;SDS011;50945;44.472;-123.352;2023-03-25T06:07:15;8.52;;;1.63;;
64550;SDS011;50945;44.472;-123.352;2023-03-25T06:09:45;3.35;;;1.30;;
64550;SDS011;50945;44.472;-123.352;2023-03-25T06:12:12;3.05;;;0.75;;
64550;SDS011;50945;44.472;-123.352;2023-03-25T06:14:44;3.40;;;1.15;;
64550;SDS011;50945;44.472;-123.352;2023-03-25T06:17:11;6.50;;;1.08;;
64550;SDS011;50945;44.472;-123.352;2023-03-25T06:19:38;3.88;;;1.27;;
64550;SDS011;50945;44.472;-123.352;2023-03-25T06:22:08;2.70;;;0.98;;
64550;SDS011;50945;44.472;-123.352;2023-03-25T06:24:35;1.58;;;0.55;;
64550;SDS011;50945;44.472;-123.352;2023-03-25T06:27:03;2.22;;;0.50;;
64550;SDS011;50945;44.472;-123.352;2023-03-25T06:29:33;4.97;;;1.15;;
64550;SDS011;50945;44.472;-123.352;2023-03-25T06:32:03;2.55;;;0.60;;
64550;SDS011;50945;44.472;-123.352;2023-03-25T06:34:30;2.90;;;1.00;;
64550;SDS011;50945;44.472;-123.352;2023-03-25T06:37:00;1.42;;;0.82;;
64550;SDS011;50945;44.472;-123.352;2023-03-25T06:39:27;2.10;;;1.00;;
64550;SDS011;50945;44.472;-123.352;2023-03-25T06:41:58;2.60;;;1.00;;
64550;SDS011;50945;44.472;-123.352;2023-03-25T06:44:25;3.38;;;0.68;;
64550;SDS011;50945;44.472;-123.352;2023-03-25T06:46:52;2.30;;;0.50;;
64550;SDS011;50945;44.472;-123.352;2023-03-25T06:49:19;1.45;;;0.38;;
64550;SDS011;50945;44.472;-123.352;2023-03-25T06:51:45;4.28;;;1.40;;
64550;SDS011;50945;44.472;-123.352;2023-03-25T06:54:12;1.83;;;0.60;;
64550;SDS011;50945;44.472;-123.352;2023-03-25T06:56:39;1.40;;;0.60;;
64550;SDS011;50945;44.472;-123.352;2023-03-25T06:59:05;2.75;;;0.88;;
64550;SDS011;50945;44.472;-123.352;2023-03-25T07:01:31;0.52;;;0.52;;
64550;SDS011;50945;44.472;-123.352;2023-03-25T07:03:58;1.27;;;0.45;;
64550;SDS011;50945;44.472;-123.352;2023-03-25T07:06:24;1.65;;;0.75;;
64550;SDS011;50945;44.472;-123.352;2023-03-25T07:08:50;1.90;;;1.33;;
64550;SDS011;50945;44.472;-123.352;2023-03-25T07:11:19;2.35;;;0.60;;
64550;SDS011;50945;44.472;-123.352;2023-03-25T07:13:51;0.43;;;0.30;;
64550;SDS011;50945;44.472;-123.352;2023-03-25T07:16:19;2.20;;;0.30;;
64550;SDS011;50945;44.472;-123.352;2023-03-25T07:18:46;0.40;;;0.20;;
64550;SDS011;50945;44.472;-123.352;2023-03-25T07:21:12;0.13;;;0.10;;
64550;SDS011;50945;44.472;-123.352;2023-03-25T07:23:38;0.30;;;0.30;;
64550;SDS011;50945;44.472;-123.352;2023-03-25T07:26:05;1.45;;;0.32;;
64550;SDS011;50945;44.472;-123.352;2023-03-25T07:28:31;0.40;;;0.38;;
64550;SDS011;50945;44.472;-123.352;2023-03-25T07:30:58;0.30;;;0.30;;
64550;SDS011;50945;44.472;-123.352;2023-03-25T07:33:24;0.20;;;0.17;;
64550;SDS011;50945;44.472;-123.352;2023-03-25T07:35:50;0.10;;;0.10;;
64550;SDS011;50945;44.472;-123.352;2023-03-25T07:38:16;0.60;;;0.47;;
64550;SDS011;50945;44.472;-123.352;2023-03-25T07:40:42;0.50;;;0.20;;
64550;SDS011;50945;44.472;-123.352;2023-03-25T07:43:08;1.17;;;0.47;;
64550;SDS011;50945;44.472;-123.352;2023-03-25T07:45:35;2.35;;;0.60;;
64550;SDS011;50945;44.472;-123.352;2023-03-25T07:48:01;1.00;;;0.20;;
64550;SDS011;50945;44.472;-123.352;2023-03-25T07:50:27;0.43;;;0.38;;
64550;SDS011;50945;44.472;-123.352;2023-03-25T07:52:54;0.50;;;0.10;;
64550;SDS011;50945;44.472;-123.352;2023-03-25T07:55:20;0.73;;;0.20;;
64550;SDS011;50945;44.472;-123.352;2023-03-25T07:57:46;0.88;;;0.50;;
64550;SDS011;50945;44.472;-123.352;2023-03-25T08:00:13;1.38;;;0.50;;
64550;SDS011;50945;44.472;-123.352;2023-03-25T08:02:39;0.98;;;0.17;;
64550;SDS011;50945;44.472;-123.352;2023-03-25T08:05:06;0.52;;;0.40;;
64550;SDS011;50945;44.472;-123.352;2023-03-25T08:07:33;1.08;;;0.25;;
64550;SDS011;50945;44.472;-123.352;2023-03-25T08:09:59;1.35;;;0.57;;
64550;SDS011;50945;44.472;-123.352;2023-03-25T08:12:25;0.30;;;0.30;;
64550;SDS011;50945;44.472;-123.352;2023-03-25T08:14:51;0.65;;;0.32;;
64550;SDS011;50945;44.472;-123.352;2023-03-25T08:17:17;0.32;;;0.30;;
64550;SDS011;50945;44.472;-123.352;2023-03-25T08:19:43;0.30;;;0.30;;
64550;SDS011;50945;44.472;-123.352;2023-03-25T08:22:10;0.20;;;0.20;;
64550;SDS011;50945;44.472;-123.352;2023-03-25T08:24:36;1.95;;;0.50;;
64550;SDS011;50945;44.472;-123.352;2023-03-25T08:27:02;0.60;;;0.60;;
64550;SDS011;50945;44.472;-123.352;2023-03-25T08:29:29;0.38;;;0.30;;
64550;SDS011;50945;44.472;-123.352;2023-03-25T08:31:58;0.40;;;0.40;;
64550;SDS011;50945;44.472;-123.352;2023-03-25T08:34:25;0.50;;;0.20;;
64550;SDS011;50945;44.472;-123.352;2023-03-25T08:36:52;0.20;;;0.20;;
64550;SDS011;50945;44.472;-123.352;2023-03-25T08:39:18;0.55;;;0.30;;
64550;SDS011;50945;44.472;-123.352;2023-03-25T08:41:46;0.25;;;0.22;;
64550;SDS011;50945;44.472;-123.352;2023-03-25T08:44:12;0.63;;;0.30;;
64550;SDS011;50945;44.472;-123.352;2023-03-25T08:46:38;0.55;;;0.30;;
64550;SDS011;50945;44.472;-123.352;2023-03-25T08:49:05;0.52;;;0.20;;
64550;SDS011;50945;44.472;-123.352;2023-03-25T08:51:31;1.02;;;0.17;;
64550;SDS011;50945;44.472;-123.352;2023-03-25T08:53:57;1.10;;;0.40;;
64550;SDS011;50945;44.472;-123.352;2023-03-25T08:58:51;0.10;;;0.10;;
64550;SDS011;50945;44.472;-123.352;2023-03-25T09:01:17;0.63;;;0.47;;
64550;SDS011;50945;44.472;-123.352;2023-03-25T09:03:46;0.13;;;0.13;;
64550;SDS011;50945;44.472;-123.352;2023-03-25T09:06:12;0.20;;;0.17;;
64550;SDS011;50945;44.472;-123.352;2023-03-25T09:08:38;0.10;;;0.10;;
64550;SDS011;50945;44.472;-123.352;2023-03-25T09:11:05;0.75;;;0.20;;
64550;SDS011;50945;44.472;-123.352;2023-03-25T09:13:31;0.22;;;0.22;;
64550;SDS011;50945;44.472;-123.352;2023-03-25T09:15:57;0.40;;;0.20;;
64550;SDS011;50945;44.472;-123.352;2023-03-25T09:18:23;0.30;;;0.30;;
64550;SDS011;50945;44.472;-123.352;2023-03-25T09:20:50;0.30;;;0.20;;
64550;SDS011;50945;44.472;-123.352;2023-03-25T09:23:16;0.08;;;0.05;;
64550;SDS011;50945;44.472;-123.352;2023-03-25T09:25:43;1.08;;;0.45;;
64550;SDS011;50945;44.472;-123.352;2023-03-25T09:28:10;0.65;;;0.32;;
64550;SDS011;50945;44.472;-123.352;2023-03-25T09:30:36;0.93;;;0.10;;
64550;SDS011;50945;44.472;-123.352;2023-03-25T09:33:02;0.30;;;0.30;;
64550;SDS011;50945;44.472;-123.352;2023-03-25T09:35:29;0.30;;;0.10;;
64550;SDS011;50945;44.472;-123.352;2023-03-25T09:37:55;1.50;;;0.25;;
64550;SDS011;50945;44.472;-123.352;2023-03-25T09:40:21;0.77;;;0.20;;
64550;SDS011;50945;44.472;-123.352;2023-03-25T09:43:13;0.57;;;0.28;;
64550;SDS011;50945;44.472;-123.352;2023-03-25T09:45:45;4.22;;;0.77;;
64550;SDS011;50945;44.472;-123.352;2023-03-25T09:50:59;0.20;;;0.20;;
64550;SDS011;50945;44.472;-123.352;2023-03-25T09:53:39;0.13;;;0.13;;
64550;SDS011;50945;44.472;-123.352;2023-03-25T09:56:26;1.05;;;0.47;;
64550;SDS011;50945;44.472;-123.352;2023-03-25T10:07:10;0.88;;;0.50;;
64550;SDS011;50945;44.472;-123.352;2023-03-25T10:09:52;0.47;;;0.47;;
64550;SDS011;50945;44.472;-123.352;2023-03-25T10:12:34;0.60;;;0.60;;
64550;SDS011;50945;44.472;-123.352;2023-03-25T10:18:08;1.05;;;0.52;;
64550;SDS011;50945;44.472;-123.352;2023-03-25T10:23:42;0.65;;;0.65;;
64550;SDS011;50945;44.472;-123.352;2023-03-25T10:26:36;0.17;;;0.17;;
64550;SDS011;50945;44.472;-123.352;2023-03-25T10:29:15;0.40;;;0.30;;
64550;SDS011;50945;44.472;-123.352;2023-03-25T10:32:10;2.05;;;0.52;;
64550;SDS011;50945;44.472;-123.352;2023-03-25T10:34:53;1.80;;;0.95;;
64550;SDS011;50945;44.472;-123.352;2023-03-25T10:37:24;0.40;;;0.40;;
64550;SDS011;50945;44.472;-123.352;2023-03-25T10:39:56;4.07;;;0.50;;
64550;SDS011;50945;44.472;-123.352;2023-03-25T10:42:38;1.95;;;0.40;;
64550;SDS011;50945;44.472;-123.352;2023-03-25T10:45:13;0.85;;;0.45;;
64550;SDS011;50945;44.472;-123.352;2023-03-25T10:47:41;1.73;;;0.60;;
64550;SDS011;50945;44.472;-123.352;2023-03-25T10:50:13;1.98;;;0.80;;
64550;SDS011;50945;44.472;-123.352;2023-03-25T10:52:41;1.77;;;0.55;;
64550;SDS011;50945;44.472;-123.352;2023-03-25T10:55:30;3.47;;;0.50;;
64550;SDS011;50945;44.472;-123.352;2023-03-25T10:57:59;0.47;;;0.40;;
64550;SDS011;50945;44.472;-123.352;2023-03-25T11:00:26;1.05;;;0.40;;
64550;SDS011;50945;44.472;-123.352;2023-03-25T11:02:54;1.15;;;0.70;;
64550;SDS011;50945;44.472;-123.352;2023-03-25T11:05:22;1.73;;;0.63;;
64550;SDS011;50945;44.472;-123.352;2023-03-25T11:07:53;0.90;;;0.70;;
64550;SDS011;50945;44.472;-123.352;2023-03-25T11:10:24;2.45;;;0.52;;
64550;SDS011;50945;44.472;-123.352;2023-03-25T11:12:53;0.88;;;0.32;;
64550;SDS011;50945;44.472;-123.352;2023-03-25T11:15:23;0.68;;;0.35;;
64550;SDS011;50945;44.472;-123.352;2023-03-25T11:20:39;4.90;;;0.50;;
64550;SDS011;50945;44.472;-123.352;2023-03-25T11:25:53;0.30;;;0.30;;
64550;SDS011;50945;44.472;-123.352;2023-03-25T11:28:29;1.85;;;0.57;;
64550;SDS011;50945;44.472;-123.352;2023-03-25T11:31:17;0.73;;;0.65;;
64550;SDS011;50945;44.472;-123.352;2023-03-25T11:33:46;0.70;;;0.25;;
64550;SDS011;50945;44.472;-123.352;2023-03-25T11:41:56;0.82;;;0.40;;
64550;SDS011;50945;44.472;-123.352;2023-03-25T11:44:27;1.60;;;0.60;;
64550;SDS011;50945;44.472;-123.352;2023-03-25T11:46:56;0.77;;;0.30;;
64550;SDS011;50945;44.472;-123.352;2023-03-25T11:49:26;0.55;;;0.55;;
64550;SDS011;50945;44.472;-123.352;2023-03-25T11:52:00;0.57;;;0.47;;
64550;SDS011;50945;44.472;-123.352;2023-03-25T11:54:31;2.38;;;0.60;;
64550;SDS011;50945;44.472;-123.352;2023-03-25T11:57:01;2.55;;;0.77;;
64550;SDS011;50945;44.472;-123.352;2023-03-25T11:59:38;0.35;;;0.30;;
64550;SDS011;50945;44.472;-123.352;2023-03-25T12:10:45;1.92;;;0.28;;
64550;SDS011;50945;44.472;-123.352;2023-03-25T12:13:34;1.55;;;0.50;;
64550;SDS011;50945;44.472;-123.352;2023-03-25T12:16:41;1.48;;;0.22;;
64550;SDS011;50945;44.472;-123.352;2023-03-25T12:19:28;0.38;;;0.20;;
64550;SDS011;50945;44.472;-123.352;2023-03-25T12:27:37;0.50;;;0.50;;
64550;SDS011;50945;44.472;-123.352;2023-03-25T12:35:47;0.57;;;0.47;;
64550;SDS011;50945;44.472;-123.352;2023-03-25T12:41:34;3.47;;;1.27;;
64550;SDS011;50945;44.472;-123.352;2023-03-25T12:59:29;2.20;;;0.70;;
64550;SDS011;50945;44.472;-123.352;2023-03-25T13:07:44;0.90;;;0.30;;
64550;SDS011;50945;44.472;-123.352;2023-03-25T13:10:16;0.88;;;0.70;;
64550;SDS011;50945;44.472;-123.352;2023-03-25T13:17:52;0.20;;;0.20;;
64550;SDS011;50945;44.472;-123.352;2023-03-25T13:20:26;0.43;;;0.40;;
64550;SDS011;50945;44.472;-123.352;2023-03-25T13:22:55;0.40;;;0.40;;
64550;SDS011;50945;44.472;-123.352;2023-03-25T13:25:31;1.95;;;0.47;;
64550;SDS011;50945;44.472;-123.352;2023-03-25T13:27:59;0.47;;;0.28;;
64550;SDS011;50945;44.472;-123.352;2023-03-25T13:30:30;1.67;;;0.60;;
64550;SDS011;50945;44.472;-123.352;2023-03-25T13:33:12;1.40;;;0.20;;
64550;SDS011;50945;44.472;-123.352;2023-03-25T13:36:06;1.13;;;0.35;;
64550;SDS011;50945;44.472;-123.352;2023-03-25T13:38:41;3.97;;;0.43;;
64550;SDS011;50945;44.472;-123.352;2023-03-25T13:41:15;1.45;;;0.60;;
64550;SDS011;50945;44.472;-123.352;2023-03-25T13:43:51;0.10;;;0.10;;
64550;SDS011;50945;44.472;-123.352;2023-03-25T13:46:30;0.43;;;0.40;;
64550;SDS011;50945;44.472;-123.352;2023-03-25T13:49:17;2.92;;;0.50;;
64550;SDS011;50945;44.472;-123.352;2023-03-25T13:51:53;0.17;;;0.17;;
64550;SDS011;50945;44.472;-123.352;2023-03-25T13:54:29;0.75;;;0.65;;
64550;SDS011;50945;44.472;-123.352;2023-03-25T14:13:37;0.80;;;0.50;;
64550;SDS011;50945;44.472;-123.352;2023-03-25T14:16:08;1.88;;;0.35;;
64550;SDS011;50945;44.472;-123.352;2023-03-25T14:18:43;1.35;;;0.40;;
64550;SDS011;50945;44.472;-123.352;2023-03-25T14:23:46;0.63;;;0.20;;
64550;SDS011;50945;44.472;-123.352;2023-03-25T14:26:14;0.55;;;0.40;;
64550;SDS011;50945;44.472;-123.352;2023-03-25T14:28:44;0.17;;;0.17;;
64550;SDS011;50945;44.472;-123.352;2023-03-25T14:57:25;0.10;;;0.10;;
64550;SDS011;50945;44.472;-123.352;2023-03-25T14:59:57;0.90;;;0.50;;
64550;SDS011;50945;44.472;-123.352;2023-03-25T15:02:37;0.28;;;0.28;;
64550;SDS011;50945;44.472;-123.352;2023-03-25T15:05:26;0.77;;;0.28;;
64550;SDS011;50945;44.472;-123.352;2023-03-25T15:07:58;1.38;;;0.40;;
64550;SDS011;50945;44.472;-123.352;2023-03-25T15:10:41;1.08;;;0.40;;
64550;SDS011;50945;44.472;-123.352;2023-03-25T15:13:23;0.60;;;0.60;;
64550;SDS011;50945;44.472;-123.352;2023-03-25T15:16:02;0.20;;;0.20;;
64550;SDS011;50945;44.472;-123.352;2023-03-25T15:21:03;0.30;;;0.30;;
64550;SDS011;50945;44.472;-123.352;2023-03-25T15:26:25;0.70;;;0.30;;
64550;SDS011;50945;44.472;-123.352;2023-03-25T15:34:37;0.50;;;0.50;;
64550;SDS011;50945;44.472;-123.352;2023-03-25T15:37:27;0.30;;;0.30;;
64550;SDS011;50945;44.472;-123.352;2023-03-25T15:42:55;0.30;;;0.30;;
64550;SDS011;50945;44.472;-123.352;2023-03-25T15:56:46;0.90;;;0.40;;
64550;SDS011;50945;44.472;-123.352;2023-03-25T16:02:11;0.80;;;0.80;;
64550;SDS011;50945;44.472;-123.352;2023-03-25T16:04:46;0.70;;;0.68;;
64550;SDS011;50945;44.472;-123.352;2023-03-25T16:07:15;0.68;;;0.50;;
64550;SDS011;50945;44.472;-123.352;2023-03-25T16:09:46;2.75;;;0.93;;
64550;SDS011;50945;44.472;-123.352;2023-03-25T16:12:21;1.23;;;0.57;;
64550;SDS011;50945;44.472;-123.352;2023-03-25T16:14:49;2.55;;;0.90;;
64550;SDS011;50945;44.472;-123.352;2023-03-25T16:17:17;0.43;;;0.43;;
64550;SDS011;50945;44.472;-123.352;2023-03-25T16:19:52;1.67;;;0.52;;
64550;SDS011;50945;44.472;-123.352;2023-03-25T16:22:23;1.17;;;0.70;;
64550;SDS011;50945;44.472;-123.352;2023-03-25T16:25:05;1.52;;;0.93;;
64550;SDS011;50945;44.472;-123.352;2023-03-25T16:27:43;0.77;;;0.45;;
64550;SDS011;50945;44.472;-123.352;2023-03-25T16:30:19;0.70;;;0.45;;
64550;SDS011;50945;44.472;-123.352;2023-03-25T16:33:14;2.38;;;0.50;;
64550;SDS011;50945;44.472;-123.352;2023-03-25T16:35:44;1.52;;;0.68;;
64550;SDS011;50945;44.472;-123.352;2023-03-25T16:38:20;1.63;;;0.73;;
64550;SDS011;50945;44.472;-123.352;2023-03-25T16:40:50;0.63;;;0.63;;
64550;SDS011;50945;44.472;-123.352;2023-03-25T16:43:21;0.52;;;0.52;;
64550;SDS011;50945;44.472;-123.352;2023-03-25T16:45:50;1.40;;;0.63;;
64550;SDS011;50945;44.472;-123.352;2023-03-25T16:48:21;1.35;;;0.60;;
64550;SDS011;50945;44.472;-123.352;2023-03-25T16:50:50;0.80;;;0.20;;
64550;SDS011;50945;44.472;-123.352;2023-03-25T16:53:18;3.20;;;0.98;;
64550;SDS011;50945;44.472;-123.352;2023-03-25T16:55:47;2.60;;;0.77;;
64550;SDS011;50945;44.472;-123.352;2023-03-25T16:58:21;3.03;;;0.70;;
64550;SDS011;50945;44.472;-123.352;2023-03-25T17:00:50;1.52;;;0.68;;
64550;SDS011;50945;44.472;-123.352;2023-03-25T17:06:19;2.28;;;0.90;;
64550;SDS011;50945;44.472;-123.352;2023-03-25T17:08:54;2.28;;;0.77;;
64550;SDS011;50945;44.472;-123.352;2023-03-25T17:11:25;1.45;;;0.50;;
64550;SDS011;50945;44.472;-123.352;2023-03-25T17:14:05;0.73;;;0.60;;
64550;SDS011;50945;44.472;-123.352;2023-03-25T17:16:39;2.20;;;0.70;;
64550;SDS011;50945;44.472;-123.352;2023-03-25T17:19:09;2.70;;;0.90;;
64550;SDS011;50945;44.472;-123.352;2023-03-25T17:21:38;3.47;;;0.60;;
64550;SDS011;50945;44.472;-123.352;2023-03-25T17:27:47;1.95;;;0.82;;
64550;SDS011;50945;44.472;-123.352;2023-03-25T17:30:15;3.53;;;0.90;;
64550;SDS011;50945;44.472;-123.352;2023-03-25T17:32:44;1.88;;;0.90;;
64550;SDS011;50945;44.472;-123.352;2023-03-25T17:35:52;1.42;;;0.50;;
64550;SDS011;50945;44.472;-123.352;2023-03-25T17:38:04;5.28;;;1.15;;
64550;SDS011;50945;44.472;-123.352;2023-03-25T17:40:33;1.88;;;0.75;;
64550;SDS011;50945;44.472;-123.352;2023-03-25T17:42:59;1.88;;;0.93;;
64550;SDS011;50945;44.472;-123.352;2023-03-25T17:45:25;2.78;;;1.30;;
64550;SDS011;50945;44.472;-123.352;2023-03-25T17:47:52;5.68;;;1.15;;
64550;SDS011;50945;44.472;-123.352;2023-03-25T17:50:19;1.25;;;0.68;;
64550;SDS011;50945;44.472;-123.352;2023-03-25T17:52:49;3.10;;;0.80;;
64550;SDS011;50945;44.472;-123.352;2023-03-25T17:55:15;1.23;;;0.80;;
64550;SDS011;50945;44.472;-123.352;2023-03-25T17:57:42;1.73;;;0.98;;
64550;SDS011;50945;44.472;-123.352;2023-03-25T18:00:12;4.00;;;1.38;;
64550;SDS011;50945;44.472;-123.352;2023-03-25T18:02:46;3.15;;;1.30;;
64550;SDS011;50945;44.472;-123.352;2023-03-25T18:05:13;3.70;;;1.02;;
64550;SDS011;50945;44.472;-123.352;2023-03-25T18:07:39;0.57;;;0.45;;
64550;SDS011;50945;44.472;-123.352;2023-03-25T18:10:13;1.70;;;0.50;;
64550;SDS011;50945;44.472;-123.352;2023-03-25T18:12:42;0.80;;;0.45;;